sensor_id;sensor_type;location;lat;lon;timestamp;pressure;altitude;pressure_sealevel;temperature
34901;BMP280;21112;51.976;5.660;2023-09-18T00:00:48;99697.31;;;19.71
34901;BMP280;21112;51.976;5.660;2023-09-18T00:03:16;99696.94;;;19.64
34901;BMP280;21112;51.976;5.660;2023-09-18T00:05:43;99688.34;;;19.65
34901;BMP280;21112;51.976;5.660;2023-09-18T00:08:11;99686.53;;;19.67
34901;BMP280;21112;51.976;5.660;2023-09-18T00:10:38;99680.03;;;19.63
34901;BMP280;21112;51.976;5.660;2023-09-18T00:13:04;99671.44;;;19.64
34901;BMP280;21112;51.976;5.660;2023-09-18T00:15:31;99669.84;;;19.63
34901;BMP280;21112;51.976;5.660;2023-09-18T00:17:58;99663.13;;;19.62
34901;BMP280;21112;51.976;5.660;2023-09-18T00:20:24;99653.50;;;19.66
34901;BMP280;21112;51.976;5.660;2023-09-18T00:22:52;99645.03;;;19.65
34901;BMP280;21112;51.976;5.660;2023-09-18T00:25:20;99634.97;;;19.64
34901;BMP280;21112;51.976;5.660;2023-09-18T00:27:47;99636.81;;;19.62
34901;BMP280;21112;51.976;5.660;2023-09-18T00:30:13;99633.59;;;19.60
34901;BMP280;21112;51.976;5.660;2023-09-18T00:32:40;99620.50;;;19.64
34901;BMP280;21112;51.976;5.660;2023-09-18T00:35:07;99627.09;;;19.67
34901;BMP280;21112;51.976;5.660;2023-09-18T00:37:34;99628.72;;;19.68
34901;BMP280;21112;51.976;5.660;2023-09-18T00:40:02;99623.97;;;19.63
34901;BMP280;21112;51.976;5.660;2023-09-18T00:42:31;99634.28;;;19.62
34901;BMP280;21112;51.976;5.660;2023-09-18T00:44:58;99618.41;;;19.58
34901;BMP280;21112;51.976;5.660;2023-09-18T00:47:25;99612.72;;;19.55
34901;BMP280;21112;51.976;5.660;2023-09-18T00:49:52;99608.94;;;19.60
34901;BMP280;21112;51.976;5.660;2023-09-18T00:52:19;99599.31;;;19.64
34901;BMP280;21112;51.976;5.660;2023-09-18T00:54:47;99591.88;;;19.61
34901;BMP280;21112;51.976;5.660;2023-09-18T00:57:14;99585.63;;;19.54
34901;BMP280;21112;51.976;5.660;2023-09-18T00:59:43;99572.09;;;19.53
34901;BMP280;21112;51.976;5.660;2023-09-18T01:02:10;99569.91;;;19.49
34901;BMP280;21112;51.976;5.660;2023-09-18T01:04:37;99575.22;;;19.46
34901;BMP280;21112;51.976;5.660;2023-09-18T01:07:09;99570.59;;;19.40
34901;BMP280;21112;51.976;5.660;2023-09-18T01:09:36;99559.81;;;19.36
34901;BMP280;21112;51.976;5.660;2023-09-18T01:12:10;99559.81;;;19.36
34901;BMP280;21112;51.976;5.660;2023-09-18T01:14:42;99558.69;;;19.40
34901;BMP280;21112;51.976;5.660;2023-09-18T01:17:11;99554.16;;;19.44
34901;BMP280;21112;51.976;5.660;2023-09-18T01:19:40;99546.63;;;19.42
34901;BMP280;21112;51.976;5.660;2023-09-18T01:22:10;99544.19;;;19.41
34901;BMP280;21112;51.976;5.660;2023-09-18T01:24:39;99540.59;;;19.43
34901;BMP280;21112;51.976;5.660;2023-09-18T01:27:08;99532.84;;;19.45
34901;BMP280;21112;51.976;5.660;2023-09-18T01:29:35;99519.84;;;19.48
34901;BMP280;21112;51.976;5.660;2023-09-18T01:32:02;99514.66;;;19.49
34901;BMP280;21112;51.976;5.660;2023-09-18T01:34:32;99511.19;;;19.50
34901;BMP280;21112;51.976;5.660;2023-09-18T01:37:02;99507.84;;;19.50
34901;BMP280;21112;51.976;5.660;2023-09-18T01:39:30;99506.34;;;19.47
34901;BMP280;21112;51.976;5.660;2023-09-18T01:41:59;99496.03;;;19.49
34901;BMP280;21112;51.976;5.660;2023-09-18T01:44:27;99483.03;;;19.52
34901;BMP280;21112;51.976;5.660;2023-09-18T01:46:56;99486.28;;;19.54
34901;BMP280;21112;51.976;5.660;2023-09-18T01:49:28;99483.88;;;19.52
34901;BMP280;21112;51.976;5.660;2023-09-18T01:51:55;99484.53;;;19.54
34901;BMP280;21112;51.976;5.660;2023-09-18T01:54:21;99475.03;;;19.56
34901;BMP280;21112;51.976;5.660;2023-09-18T01:56:48;99484.66;;;19.53
34901;BMP280;21112;51.976;5.660;2023-09-18T01:59:16;99484.91;;;19.50
34901;BMP280;21112;51.976;5.660;2023-09-18T02:01:43;99494.06;;;19.52
34901;BMP280;21112;51.976;5.660;2023-09-18T02:04:10;99502.94;;;19.58
34901;BMP280;21112;51.976;5.660;2023-09-18T02:06:36;99505.50;;;19.58
34901;BMP280;21112;51.976;5.660;2023-09-18T02:09:03;99507.84;;;19.50
34901;BMP280;21112;51.976;5.660;2023-09-18T02:11:30;99519.06;;;19.47
34901;BMP280;21112;51.976;5.660;2023-09-18T02:13:56;99509.34;;;19.41
34901;BMP280;21112;51.976;5.660;2023-09-18T02:16:25;99503.44;;;19.41
34901;BMP280;21112;51.976;5.660;2023-09-18T02:18:54;99499.25;;;19.40
34901;BMP280;21112;51.976;5.660;2023-09-18T02:21:21;99496.97;;;19.37
34901;BMP280;21112;51.976;5.660;2023-09-18T02:23:49;99496.25;;;19.35
34901;BMP280;21112;51.976;5.660;2023-09-18T02:26:16;99493.25;;;19.41
34901;BMP280;21112;51.976;5.660;2023-09-18T02:28:43;99490.94;;;19.38
34901;BMP280;21112;51.976;5.660;2023-09-18T02:31:09;99491.97;;;19.35
34901;BMP280;21112;51.976;5.660;2023-09-18T02:33:38;99482.84;;;19.33
34901;BMP280;21112;51.976;5.660;2023-09-18T02:36:04;99479.59;;;19.31
34901;BMP280;21112;51.976;5.660;2023-09-18T02:38:31;99466.50;;;19.24
34901;BMP280;21112;51.976;5.660;2023-09-18T02:40:58;99463.28;;;19.22
34901;BMP280;21112;51.976;5.660;2023-09-18T02:43:25;99451.59;;;19.20
34901;BMP280;21112;51.976;5.660;2023-09-18T02:45:52;99444.19;;;19.17
34901;BMP280;21112;51.976;5.660;2023-09-18T02:48:19;99444.97;;;19.17
34901;BMP280;21112;51.976;5.660;2023-09-18T02:50:47;99429.94;;;19.14
34901;BMP280;21112;51.976;5.660;2023-09-18T02:53:17;99424.28;;;19.11
34901;BMP280;21112;51.976;5.660;2023-09-18T02:55:44;99420.78;;;19.12
34901;BMP280;21112;51.976;5.660;2023-09-18T02:58:11;99411.44;;;19.12
34901;BMP280;21112;51.976;5.660;2023-09-18T03:00:41;99396.00;;;19.14
34901;BMP280;21112;51.976;5.660;2023-09-18T03:03:08;99390.91;;;19.14
34901;BMP280;21112;51.976;5.660;2023-09-18T03:05:35;99377.25;;;19.15
34901;BMP280;21112;51.976;5.660;2023-09-18T03:08:03;99365.47;;;19.14
34901;BMP280;21112;51.976;5.660;2023-09-18T03:10:32;99364.78;;;19.12
34901;BMP280;21112;51.976;5.660;2023-09-18T03:13:02;99350.44;;;19.11
34901;BMP280;21112;51.976;5.660;2023-09-18T03:15:30;99343.16;;;19.06
34901;BMP280;21112;51.976;5.660;2023-09-18T03:17:57;99351.84;;;19.04
34901;BMP280;21112;51.976;5.660;2023-09-18T03:20:24;99353.47;;;19.05
34901;BMP280;21112;51.976;5.660;2023-09-18T03:22:53;99341.88;;;19.01
34901;BMP280;21112;51.976;5.660;2023-09-18T03:25:21;99350.59;;;18.98
34901;BMP280;21112;51.976;5.660;2023-09-18T03:27:49;99356.59;;;18.97
34901;BMP280;21112;51.976;5.660;2023-09-18T03:30:16;99359.13;;;18.97
34901;BMP280;21112;51.976;5.660;2023-09-18T03:32:42;99354.97;;;19.07
34901;BMP280;21112;51.976;5.660;2023-09-18T03:35:10;99356.31;;;19.11
34901;BMP280;21112;51.976;5.660;2023-09-18T03:37:43;99364.78;;;19.12
34901;BMP280;21112;51.976;5.660;2023-09-18T03:40:10;99358.66;;;19.14
34901;BMP280;21112;51.976;5.660;2023-09-18T03:42:38;99364.41;;;19.16
34901;BMP280;21112;51.976;5.660;2023-09-18T03:45:06;99378.09;;;19.15
34901;BMP280;21112;51.976;5.660;2023-09-18T03:47:33;99370.56;;;19.14
34901;BMP280;21112;51.976;5.660;2023-09-18T03:50:00;99362.34;;;19.10
34901;BMP280;21112;51.976;5.660;2023-09-18T03:52:27;99373.56;;;19.08
34901;BMP280;21112;51.976;5.660;2023-09-18T03:54:54;99373.16;;;19.03
34901;BMP280;21112;51.976;5.660;2023-09-18T03:57:20;99370.97;;;18.98
34901;BMP280;21112;51.976;5.660;2023-09-18T03:59:48;99375.22;;;18.98
34901;BMP280;21112;51.976;5.660;2023-09-18T04:02:15;99367.22;;;18.91
34901;BMP280;21112;51.976;5.660;2023-09-18T04:04:41;99366.09;;;18.84
34901;BMP280;21112;51.976;5.660;2023-09-18T04:07:08;99350.72;;;18.86
34901;BMP280;21112;51.976;5.660;2023-09-18T04:09:35;99336.06;;;18.78
34901;BMP280;21112;51.976;5.660;2023-09-18T04:12:03;99332.34;;;18.71
34901;BMP280;21112;51.976;5.660;2023-09-18T04:14:31;99335.13;;;18.68
34901;BMP280;21112;51.976;5.660;2023-09-18T04:16:59;99340.47;;;18.65
34901;BMP280;21112;51.976;5.660;2023-09-18T04:19:26;99337.34;;;18.62
34901;BMP280;21112;51.976;5.660;2023-09-18T04:21:54;99337.56;;;18.59
34901;BMP280;21112;51.976;5.660;2023-09-18T04:24:21;99337.56;;;18.59
34901;BMP280;21112;51.976;5.660;2023-09-18T04:26:48;99326.69;;;18.57
34901;BMP280;21112;51.976;5.660;2023-09-18T04:29:16;99308.22;;;18.55
34901;BMP280;21112;51.976;5.660;2023-09-18T04:31:43;99312.22;;;18.57
34901;BMP280;21112;51.976;5.660;2023-09-18T04:34:11;99316.06;;;18.63
34901;BMP280;21112;51.976;5.660;2023-09-18T04:36:38;99324.25;;;18.66
34901;BMP280;21112;51.976;5.660;2023-09-18T04:39:05;99326.44;;;18.71
34901;BMP280;21112;51.976;5.660;2023-09-18T04:41:32;99333.03;;;18.73
34901;BMP280;21112;51.976;5.660;2023-09-18T04:43:59;99324.00;;;18.80
34901;BMP280;21112;51.976;5.660;2023-09-18T04:46:26;99325.00;;;19.00
34901;BMP280;21112;51.976;5.660;2023-09-18T04:48:52;99332.16;;;19.06
34901;BMP280;21112;51.976;5.660;2023-09-18T04:51:20;99334.47;;;19.09
34901;BMP280;21112;51.976;5.660;2023-09-18T04:53:47;99334.13;;;19.13
34901;BMP280;21112;51.976;5.660;2023-09-18T04:56:13;99332.94;;;19.17
34901;BMP280;21112;51.976;5.660;2023-09-18T04:58:40;99336.78;;;19.23
34901;BMP280;21112;51.976;5.660;2023-09-18T05:01:06;99340.28;;;19.00
34901;BMP280;21112;51.976;5.660;2023-09-18T05:03:33;99329.56;;;18.85
34901;BMP280;21112;51.976;5.660;2023-09-18T05:06:00;99332.94;;;18.75
34901;BMP280;21112;51.976;5.660;2023-09-18T05:08:29;99339.75;;;18.74
34901;BMP280;21112;51.976;5.660;2023-09-18T05:10:56;99327.69;;;18.76
34901;BMP280;21112;51.976;5.660;2023-09-18T05:13:23;99329.31;;;18.77
34901;BMP280;21112;51.976;5.660;2023-09-18T05:15:50;99320.63;;;18.80
34901;BMP280;21112;51.976;5.660;2023-09-18T05:18:17;99302.81;;;18.80
34901;BMP280;21112;51.976;5.660;2023-09-18T05:20:43;99297.75;;;18.80
34901;BMP280;21112;51.976;5.660;2023-09-18T05:23:10;99289.88;;;18.83
34901;BMP280;21112;51.976;5.660;2023-09-18T05:25:38;99289.16;;;18.81
34901;BMP280;21112;51.976;5.660;2023-09-18T05:28:07;99297.06;;;18.78
34901;BMP280;21112;51.976;5.660;2023-09-18T05:30:35;99286.06;;;18.77
34901;BMP280;21112;51.976;5.660;2023-09-18T05:33:05;99290.25;;;18.78
34901;BMP280;21112;51.976;5.660;2023-09-18T05:35:32;99288.59;;;18.77
34901;BMP280;21112;51.976;5.660;2023-09-18T05:37:59;99309.88;;;18.76
34901;BMP280;21112;51.976;5.660;2023-09-18T05:40:26;99315.81;;;18.77
34901;BMP280;21112;51.976;5.660;2023-09-18T05:42:56;99315.81;;;18.77
34901;BMP280;21112;51.976;5.660;2023-09-18T05:45:22;99323.44;;;18.77
34901;BMP280;21112;51.976;5.660;2023-09-18T05:47:50;99320.88;;;18.77
34901;BMP280;21112;51.976;5.660;2023-09-18T05:50:18;99320.88;;;18.77
34901;BMP280;21112;51.976;5.660;2023-09-18T05:52:46;99315.81;;;18.77
34901;BMP280;21112;51.976;5.660;2023-09-18T05:55:14;99315.69;;;18.78
34901;BMP280;21112;51.976;5.660;2023-09-18T05:57:40;99314.97;;;18.76
34901;BMP280;21112;51.976;5.660;2023-09-18T06:00:10;99331.06;;;18.77
34901;BMP280;21112;51.976;5.660;2023-09-18T06:02:38;99345.41;;;18.78
34901;BMP280;21112;51.976;5.660;2023-09-18T06:05:06;99334.19;;;18.80
34901;BMP280;21112;51.976;5.660;2023-09-18T06:07:34;99336.47;;;18.83
34901;BMP280;21112;51.976;5.660;2023-09-18T06:10:00;99353.63;;;18.81
34901;BMP280;21112;51.976;5.660;2023-09-18T06:12:27;99348.53;;;18.81
34901;BMP280;21112;51.976;5.660;2023-09-18T06:14:54;99345.63;;;18.86
34901;BMP280;21112;51.976;5.660;2023-09-18T06:17:24;99355.59;;;18.89
34901;BMP280;21112;51.976;5.660;2023-09-18T06:19:50;99352.56;;;18.95
34901;BMP280;21112;51.976;5.660;2023-09-18T06:22:17;99344.09;;;18.94
34901;BMP280;21112;51.976;5.660;2023-09-18T06:24:44;99338.91;;;18.96
34901;BMP280;21112;51.976;5.660;2023-09-18T06:27:10;99336.38;;;18.96
34901;BMP280;21112;51.976;5.660;2023-09-18T06:29:37;99354.28;;;18.94
34901;BMP280;21112;51.976;5.660;2023-09-18T06:32:04;99363.53;;;18.95
34901;BMP280;21112;51.976;5.660;2023-09-18T06:34:33;99361.09;;;18.94
34901;BMP280;21112;51.976;5.660;2023-09-18T06:37:00;99356.00;;;18.94
34901;BMP280;21112;51.976;5.660;2023-09-18T06:39:30;99364.47;;;18.94
34901;BMP280;21112;51.976;5.660;2023-09-18T06:41:58;99373.84;;;18.94
34901;BMP280;21112;51.976;5.660;2023-09-18T06:44:24;99377.09;;;18.96
34901;BMP280;21112;51.976;5.660;2023-09-18T06:46:51;99366.09;;;18.95
34901;BMP280;21112;51.976;5.660;2023-09-18T06:49:19;99368.53;;;18.97
34901;BMP280;21112;51.976;5.660;2023-09-18T06:51:47;99370.50;;;18.93
34901;BMP280;21112;51.976;5.660;2023-09-18T06:54:13;99360.88;;;18.97
34901;BMP280;21112;51.976;5.660;2023-09-18T06:56:40;99366.75;;;18.97
34901;BMP280;21112;51.976;5.660;2023-09-18T06:59:09;99368.84;;;19.03
34901;BMP280;21112;51.976;5.660;2023-09-18T07:01:37;99372.06;;;19.16
34901;BMP280;21112;51.976;5.660;2023-09-18T07:04:04;99371.00;;;19.19
34901;BMP280;21112;51.976;5.660;2023-09-18T07:06:32;99382.03;;;19.19
34901;BMP280;21112;51.976;5.660;2023-09-18T07:09:01;99378.09;;;19.15
34901;BMP280;21112;51.976;5.660;2023-09-18T07:11:30;99377.63;;;19.10
34901;BMP280;21112;51.976;5.660;2023-09-18T07:13:56;99380.41;;;19.18
34901;BMP280;21112;51.976;5.660;2023-09-18T07:16:23;99369.28;;;19.19
34901;BMP280;21112;51.976;5.660;2023-09-18T07:18:50;99355.53;;;19.22
34901;BMP280;21112;51.976;5.660;2023-09-18T07:21:16;99367.56;;;19.20
34901;BMP280;21112;51.976;5.660;2023-09-18T07:23:43;99370.09;;;19.20
34901;BMP280;21112;51.976;5.660;2023-09-18T07:26:12;99338.72;;;19.19
34901;BMP280;21112;51.976;5.660;2023-09-18T07:28:39;99332.03;;;19.18
34901;BMP280;21112;51.976;5.660;2023-09-18T07:31:07;99355.16;;;19.15
34901;BMP280;21112;51.976;5.660;2023-09-18T07:33:35;99353.31;;;19.17
34901;BMP280;21112;51.976;5.660;2023-09-18T07:36:01;99359.00;;;19.21
34901;BMP280;21112;51.976;5.660;2023-09-18T07:38:28;99362.69;;;19.17
34901;BMP280;21112;51.976;5.660;2023-09-18T07:40:56;99360.81;;;19.19
34901;BMP280;21112;51.976;5.660;2023-09-18T07:43:24;99362.81;;;19.26
34901;BMP280;21112;51.976;5.660;2023-09-18T07:45:51;99373.09;;;19.36
34901;BMP280;21112;51.976;5.660;2023-09-18T07:48:17;99376.53;;;19.35
34901;BMP280;21112;51.976;5.660;2023-09-18T07:50:45;99381.97;;;19.41
34901;BMP280;21112;51.976;5.660;2023-09-18T07:53:14;99385.22;;;19.43
34901;BMP280;21112;51.976;5.660;2023-09-18T07:55:41;99390.31;;;19.43
34901;BMP280;21112;51.976;5.660;2023-09-18T07:58:07;99386.13;;;19.42
34901;BMP280;21112;51.976;5.660;2023-09-18T08:00:36;99378.38;;;19.44
34901;BMP280;21112;51.976;5.660;2023-09-18T08:03:03;99374.66;;;19.48
34901;BMP280;21112;51.976;5.660;2023-09-18T08:05:30;99368.03;;;19.56
34901;BMP280;21112;51.976;5.660;2023-09-18T08:07:57;99378.41;;;19.64
34901;BMP280;21112;51.976;5.660;2023-09-18T08:10:24;99385.34;;;19.73
34901;BMP280;21112;51.976;5.660;2023-09-18T08:12:51;99378.94;;;19.79
34901;BMP280;21112;51.976;5.660;2023-09-18T08:15:19;99373.84;;;19.79
34901;BMP280;21112;51.976;5.660;2023-09-18T08:17:48;99379.19;;;19.76
34901;BMP280;21112;51.976;5.660;2023-09-18T08:20:14;99378.84;;;19.69
34901;BMP280;21112;51.976;5.660;2023-09-18T08:22:43;99375.06;;;19.64
34901;BMP280;21112;51.976;5.660;2023-09-18T08:25:12;99381.28;;;19.71
34901;BMP280;21112;51.976;5.660;2023-09-18T08:27:40;99389.88;;;19.70
34901;BMP280;21112;51.976;5.660;2023-09-18T08:30:09;99392.41;;;19.70
34901;BMP280;21112;51.976;5.660;2023-09-18T08:32:36;99401.69;;;19.71
34901;BMP280;21112;51.976;5.660;2023-09-18T08:35:06;99391.50;;;19.71
34901;BMP280;21112;51.976;5.660;2023-09-18T08:37:35;99386.31;;;19.82
34901;BMP280;21112;51.976;5.660;2023-09-18T08:40:02;99378.53;;;20.15
34901;BMP280;21112;51.976;5.660;2023-09-18T08:42:36;99387.09;;;20.34
34901;BMP280;21112;51.976;5.660;2023-09-18T08:45:07;99391.34;;;20.84
34901;BMP280;21112;51.976;5.660;2023-09-18T08:47:37;99388.53;;;21.36
34901;BMP280;21112;51.976;5.660;2023-09-18T08:50:08;99396.09;;;20.89
34901;BMP280;21112;51.976;5.660;2023-09-18T08:52:35;99398.13;;;20.65
34901;BMP280;21112;51.976;5.660;2023-09-18T08:55:03;99414.53;;;20.42
34901;BMP280;21112;51.976;5.660;2023-09-18T08:57:31;99422.31;;;20.91
34901;BMP280;21112;51.976;5.660;2023-09-18T08:59:58;99401.66;;;20.83
34901;BMP280;21112;51.976;5.660;2023-09-18T09:04:58;99413.59;;;20.73
34901;BMP280;21112;51.976;5.660;2023-09-18T09:07:28;99407.00;;;20.91
34901;BMP280;21112;51.976;5.660;2023-09-18T09:09:58;99403.84;;;20.57
34901;BMP280;21112;51.976;5.660;2023-09-18T09:12:49;99400.59;;;20.25
34901;BMP280;21112;51.976;5.660;2023-09-18T09:15:16;99409.63;;;20.29
34901;BMP280;21112;51.976;5.660;2023-09-18T09:17:43;99418.97;;;21.00
34901;BMP280;21112;51.976;5.660;2023-09-18T09:20:11;99410.44;;;21.20
34901;BMP280;21112;51.976;5.660;2023-09-18T09:22:42;99407.97;;;21.09
34901;BMP280;21112;51.976;5.660;2023-09-18T09:25:25;99411.19;;;21.01
34901;BMP280;21112;51.976;5.660;2023-09-18T09:27:57;99395.84;;;21.79
34901;BMP280;21112;51.976;5.660;2023-09-18T09:30:26;99401.34;;;21.93
34901;BMP280;21112;51.976;5.660;2023-09-18T09:32:54;99408.69;;;22.80
34901;BMP280;21112;51.976;5.660;2023-09-18T09:35:22;99403.81;;;23.75
34901;BMP280;21112;51.976;5.660;2023-09-18T09:37:51;99388.84;;;24.06
34901;BMP280;21112;51.976;5.660;2023-09-18T09:40:19;99385.53;;;24.98
34901;BMP280;21112;51.976;5.660;2023-09-18T09:42:47;99393.88;;;25.08
34901;BMP280;21112;51.976;5.660;2023-09-18T09:45:15;99386.75;;;24.86
34901;BMP280;21112;51.976;5.660;2023-09-18T09:47:42;99399.00;;;25.41
34901;BMP280;21112;51.976;5.660;2023-09-18T09:50:11;99409.31;;;25.73
34901;BMP280;21112;51.976;5.660;2023-09-18T09:52:42;99421.38;;;25.73
34901;BMP280;21112;51.976;5.660;2023-09-18T09:55:30;99426.94;;;25.28
34901;BMP280;21112;51.976;5.660;2023-09-18T09:57:59;99435.94;;;24.65
34901;BMP280;21112;51.976;5.660;2023-09-18T10:00:30;99423.94;;;24.48
34901;BMP280;21112;51.976;5.660;2023-09-18T10:03:04;99433.06;;;23.20
34901;BMP280;21112;51.976;5.660;2023-09-18T10:05:32;99435.50;;;22.49
34901;BMP280;21112;51.976;5.660;2023-09-18T10:08:03;99425.44;;;21.91
34901;BMP280;21112;51.976;5.660;2023-09-18T10:10:35;99439.13;;;21.52
34901;BMP280;21112;51.976;5.660;2023-09-18T10:13:13;99431.16;;;21.36
34901;BMP280;21112;51.976;5.660;2023-09-18T10:15:42;99436.41;;;21.25
34901;BMP280;21112;51.976;5.660;2023-09-18T10:18:17;99442.47;;;21.43
34901;BMP280;21112;51.976;5.660;2023-09-18T10:20:46;99443.59;;;21.69
34901;BMP280;21112;51.976;5.660;2023-09-18T10:23:22;99447.88;;;21.49
34901;BMP280;21112;51.976;5.660;2023-09-18T10:25:59;99460.06;;;21.27
34901;BMP280;21112;51.976;5.660;2023-09-18T10:28:28;99461.03;;;21.35
34901;BMP280;21112;51.976;5.660;2023-09-18T10:30:57;99462.31;;;21.20
34901;BMP280;21112;51.976;5.660;2023-09-18T10:33:25;99460.53;;;21.11
34901;BMP280;21112;51.976;5.660;2023-09-18T10:35:53;99465.50;;;21.03
34901;BMP280;21112;51.976;5.660;2023-09-18T10:38:21;99465.38;;;21.05
34901;BMP280;21112;51.976;5.660;2023-09-18T10:40:48;99469.41;;;21.07
34901;BMP280;21112;51.976;5.660;2023-09-18T10:43:18;99470.59;;;21.03
34901;BMP280;21112;51.976;5.660;2023-09-18T10:45:46;99469.88;;;20.92
34901;BMP280;21112;51.976;5.660;2023-09-18T10:48:14;99467.94;;;20.84
34901;BMP280;21112;51.976;5.660;2023-09-18T10:50:42;99463.44;;;20.97
34901;BMP280;21112;51.976;5.660;2023-09-18T10:53:11;99460.13;;;21.06
34901;BMP280;21112;51.976;5.660;2023-09-18T10:55:38;99466.22;;;21.24
34901;BMP280;21112;51.976;5.660;2023-09-18T10:58:05;99466.75;;;21.18
34901;BMP280;21112;51.976;5.660;2023-09-18T11:00:33;99466.38;;;21.81
34901;BMP280;21112;51.976;5.660;2023-09-18T11:03:14;99462.53;;;22.61
34901;BMP280;21112;51.976;5.660;2023-09-18T11:05:44;99466.06;;;22.51
34901;BMP280;21112;51.976;5.660;2023-09-18T11:08:27;99450.22;;;23.10
34901;BMP280;21112;51.976;5.660;2023-09-18T11:10:56;99447.78;;;22.27
34901;BMP280;21112;51.976;5.660;2023-09-18T11:13:33;99456.00;;;21.92
34901;BMP280;21112;51.976;5.660;2023-09-18T11:16:13;99447.44;;;23.31
34901;BMP280;21112;51.976;5.660;2023-09-18T11:18:41;99439.66;;;23.50
34901;BMP280;21112;51.976;5.660;2023-09-18T11:21:09;99435.69;;;22.74
34901;BMP280;21112;51.976;5.660;2023-09-18T11:23:37;99445.34;;;22.16
34901;BMP280;21112;51.976;5.660;2023-09-18T11:26:08;99450.34;;;21.98
34901;BMP280;21112;51.976;5.660;2023-09-18T11:28:43;99443.72;;;21.67
34901;BMP280;21112;51.976;5.660;2023-09-18T11:31:42;99439.56;;;22.23
34901;BMP280;21112;51.976;5.660;2023-09-18T11:34:14;99437.13;;;22.86
34901;BMP280;21112;51.976;5.660;2023-09-18T11:36:43;99433.28;;;23.00
34901;BMP280;21112;51.976;5.660;2023-09-18T11:39:11;99443.56;;;23.44
34901;BMP280;21112;51.976;5.660;2023-09-18T11:41:39;99440.94;;;22.73
34901;BMP280;21112;51.976;5.660;2023-09-18T11:44:34;99445.56;;;22.41
34901;BMP280;21112;51.976;5.660;2023-09-18T11:47:10;99454.47;;;23.29
34901;BMP280;21112;51.976;5.660;2023-09-18T11:49:46;99451.94;;;23.46
34901;BMP280;21112;51.976;5.660;2023-09-18T11:52:15;99435.28;;;24.38
34901;BMP280;21112;51.976;5.660;2023-09-18T11:54:43;99431.28;;;24.43
34901;BMP280;21112;51.976;5.660;2023-09-18T11:57:12;99438.06;;;25.03
34901;BMP280;21112;51.976;5.660;2023-09-18T11:59:40;99438.19;;;23.65
34901;BMP280;21112;51.976;5.660;2023-09-18T12:02:09;99434.41;;;22.52
34901;BMP280;21112;51.976;5.660;2023-09-18T12:07:14;99443.16;;;21.64
34901;BMP280;21112;51.976;5.660;2023-09-18T12:09:41;99452.31;;;21.57
34901;BMP280;21112;51.976;5.660;2023-09-18T12:12:08;99457.22;;;21.69
34901;BMP280;21112;51.976;5.660;2023-09-18T12:14:36;99453.53;;;21.53
34901;BMP280;21112;51.976;5.660;2023-09-18T12:17:23;99453.50;;;21.43
34901;BMP280;21112;51.976;5.660;2023-09-18T12:19:52;99452.66;;;21.82
34901;BMP280;21112;51.976;5.660;2023-09-18T12:22:27;99448.34;;;22.76
34901;BMP280;21112;51.976;5.660;2023-09-18T12:25:08;99442.59;;;24.07
34901;BMP280;21112;51.976;5.660;2023-09-18T12:27:37;99438.63;;;24.13
34901;BMP280;21112;51.976;5.660;2023-09-18T12:32:58;99444.66;;;23.86
34901;BMP280;21112;51.976;5.660;2023-09-18T12:35:29;99428.75;;;24.00
34901;BMP280;21112;51.976;5.660;2023-09-18T12:38:13;99432.25;;;23.99
34901;BMP280;21112;51.976;5.660;2023-09-18T12:40:40;99426.50;;;24.48
34901;BMP280;21112;51.976;5.660;2023-09-18T12:43:07;99429.31;;;24.37
34901;BMP280;21112;51.976;5.660;2023-09-18T12:45:34;99417.75;;;24.33
34901;BMP280;21112;51.976;5.660;2023-09-18T12:48:06;99421.97;;;23.64
34901;BMP280;21112;51.976;5.660;2023-09-18T12:50:33;99419.13;;;24.02
34901;BMP280;21112;51.976;5.660;2023-09-18T12:53:10;99414.97;;;24.01
34901;BMP280;21112;51.976;5.660;2023-09-18T12:55:46;99409.34;;;24.23
34901;BMP280;21112;51.976;5.660;2023-09-18T12:58:13;99400.88;;;23.70
34901;BMP280;21112;51.976;5.660;2023-09-18T13:03:43;99405.56;;;23.92
34901;BMP280;21112;51.976;5.660;2023-09-18T13:06:18;99388.84;;;24.31
34901;BMP280;21112;51.976;5.660;2023-09-18T13:12:11;99376.63;;;25.34
34901;BMP280;21112;51.976;5.660;2023-09-18T13:14:59;99366.78;;;24.46
34901;BMP280;21112;51.976;5.660;2023-09-18T13:17:39;99381.16;;;25.40
34901;BMP280;21112;51.976;5.660;2023-09-18T13:20:20;99363.31;;;25.46
34901;BMP280;21112;51.976;5.660;2023-09-18T13:22:53;99366.50;;;25.40
34901;BMP280;21112;51.976;5.660;2023-09-18T13:25:28;99352.03;;;24.82
34901;BMP280;21112;51.976;5.660;2023-09-18T13:27:55;99353.03;;;23.79
34901;BMP280;21112;51.976;5.660;2023-09-18T13:30:28;99356.25;;;23.81
34901;BMP280;21112;51.976;5.660;2023-09-18T13:33:15;99346.47;;;24.02
34901;BMP280;21112;51.976;5.660;2023-09-18T13:35:48;99340.66;;;24.17
34901;BMP280;21112;51.976;5.660;2023-09-18T13:38:19;99346.59;;;24.51
34901;BMP280;21112;51.976;5.660;2023-09-18T13:40:54;99338.25;;;24.49
34901;BMP280;21112;51.976;5.660;2023-09-18T13:43:21;99337.09;;;24.69
34901;BMP280;21112;51.976;5.660;2023-09-18T13:45:54;99338.06;;;24.17
34901;BMP280;21112;51.976;5.660;2023-09-18T13:48:26;99332.44;;;23.71
34901;BMP280;21112;51.976;5.660;2023-09-18T13:50:59;99333.81;;;23.13
34901;BMP280;21112;51.976;5.660;2023-09-18T13:53:34;99327.22;;;23.10
34901;BMP280;21112;51.976;5.660;2023-09-18T13:56:10;99326.25;;;22.94
34901;BMP280;21112;51.976;5.660;2023-09-18T13:58:46;99319.97;;;23.06
34901;BMP280;21112;51.976;5.660;2023-09-18T14:01:40;99306.34;;;22.88
34901;BMP280;21112;51.976;5.660;2023-09-18T14:04:08;99307.06;;;22.80
34901;BMP280;21112;51.976;5.660;2023-09-18T14:09:40;99313.88;;;22.89
34901;BMP280;21112;51.976;5.660;2023-09-18T14:12:11;99304.81;;;22.95
34901;BMP280;21112;51.976;5.660;2023-09-18T14:14:48;99304.41;;;22.99
34901;BMP280;21112;51.976;5.660;2023-09-18T14:17:30;99310.75;;;23.13
34901;BMP280;21112;51.976;5.660;2023-09-18T14:20:00;99296.44;;;23.20
34901;BMP280;21112;51.976;5.660;2023-09-18T14:23:08;99292.03;;;23.12
34901;BMP280;21112;51.976;5.660;2023-09-18T14:25:39;99283.78;;;23.18
34901;BMP280;21112;51.976;5.660;2023-09-18T14:28:11;99274.88;;;23.48
34901;BMP280;21112;51.976;5.660;2023-09-18T14:30:39;99276.91;;;23.62
34901;BMP280;21112;51.976;5.660;2023-09-18T14:33:21;99274.13;;;23.73
34901;BMP280;21112;51.976;5.660;2023-09-18T14:35:52;99277.81;;;23.53
34901;BMP280;21112;51.976;5.660;2023-09-18T14:38:30;99274.28;;;23.54